createdAt,value
2018-04-14T00:00:02.982Z,1007.55
2018-04-14T00:01:02.963Z,1007.57
2018-04-14T00:02:02.953Z,1007.58
2018-04-14T00:03:02.934Z,1007.59
2018-04-14T00:04:02.929Z,1007.54
2018-04-14T00:05:02.901Z,1007.56
2018-04-14T00:06:02.894Z,1007.56
2018-04-14T00:07:02.869Z,1007.57
2018-04-14T00:08:02.863Z,1007.56
2018-04-14T00:09:02.843Z,1007.54
2018-04-14T00:10:02.832Z,1007.54
2018-04-14T00:11:02.813Z,1007.55
2018-04-14T00:12:02.807Z,1007.52
2018-04-14T00:13:02.782Z,1007.54
2018-04-14T00:14:02.773Z,1007.56
2018-04-14T00:15:02.751Z,1007.57
2018-04-14T00:16:02.745Z,1007.63
2018-04-14T00:17:02.724Z,1007.62
2018-04-14T00:18:02.711Z,1007.64
2018-04-14T00:19:02.692Z,1007.65
2018-04-14T00:20:02.674Z,1007.66
2018-04-14T00:21:02.660Z,1007.68
2018-04-14T00:22:02.649Z,1007.68
2018-04-14T00:23:02.629Z,1007.71
2018-04-14T00:24:02.615Z,1007.71
2018-04-14T00:25:02.609Z,1007.67
2018-04-14T00:26:02.585Z,1007.66
2018-04-14T00:27:02.567Z,1007.68
2018-04-14T00:28:02.552Z,1007.65
2018-04-14T00:29:02.554Z,1007.66
2018-04-14T00:30:02.661Z,1007.66
2018-04-14T00:31:02.514Z,1007.66
2018-04-14T00:32:02.503Z,1007.67
2018-04-14T00:33:02.486Z,1007.67
2018-04-14T00:34:02.528Z,1007.65
2018-04-14T00:35:02.450Z,1007.66
2018-04-14T00:36:02.454Z,1007.65
2018-04-14T00:37:02.422Z,1007.67
2018-04-14T00:38:02.409Z,1007.65
2018-04-14T00:39:02.383Z,1007.71
2018-04-14T00:40:02.369Z,1007.68
2018-04-14T00:41:02.350Z,1007.67
2018-04-14T00:42:02.340Z,1007.63
2018-04-14T00:43:02.324Z,1007.68
2018-04-14T00:44:02.313Z,1007.66
2018-04-14T00:45:02.300Z,1007.69
2018-04-14T00:46:02.280Z,1007.66
2018-04-14T00:47:02.262Z,1007.65
2018-04-14T00:48:02.262Z,1007.65
2018-04-14T00:49:02.235Z,1007.66
2018-04-14T00:50:02.220Z,1007.68
2018-04-14T00:51:02.204Z,1007.70
2018-04-14T00:52:02.185Z,1007.74
2018-04-14T00:53:02.183Z,1007.70
2018-04-14T00:54:02.154Z,1007.72
2018-04-14T00:55:02.145Z,1007.73
2018-04-14T00:56:02.122Z,1007.76
2018-04-14T00:57:02.114Z,1007.75
2018-04-14T00:58:02.093Z,1007.79
2018-04-14T00:59:02.082Z,1007.78
2018-04-14T01:00:02.067Z,1007.76
2018-04-14T01:01:02.054Z,1007.79
2018-04-14T01:02:02.030Z,1007.77
2018-04-14T01:03:02.024Z,1007.81
2018-04-14T01:04:02.000Z,1007.79
2018-04-14T01:05:01.983Z,1007.78
2018-04-14T01:06:01.967Z,1007.75
2018-04-14T01:07:01.952Z,1007.80
2018-04-14T01:08:01.943Z,1007.80
2018-04-14T01:09:01.937Z,1007.82
2018-04-14T01:10:01.912Z,1007.83
2018-04-14T01:11:01.898Z,1007.78
2018-04-14T01:12:01.889Z,1007.80
2018-04-14T01:13:01.862Z,1007.81
2018-04-14T01:14:01.854Z,1007.86
2018-04-14T01:15:01.832Z,1007.82
2018-04-14T01:16:01.814Z,1007.81
2018-04-14T01:17:01.802Z,1007.84
2018-04-14T01:18:01.782Z,1007.83
2018-04-14T01:19:01.782Z,1007.86
2018-04-14T01:20:01.803Z,1007.85
2018-04-14T01:21:01.741Z,1007.89
2018-04-14T01:22:01.725Z,1007.85
2018-04-14T01:23:01.716Z,1007.90
2018-04-14T01:24:01.693Z,1007.91
2018-04-14T01:25:01.677Z,1007.90
2018-04-14T01:26:01.663Z,1007.90
2018-04-14T01:27:01.652Z,1007.86
2018-04-14T01:28:01.632Z,1007.92
2018-04-14T01:29:01.615Z,1007.92
2018-04-14T01:30:01.605Z,1007.94
2018-04-14T01:31:01.586Z,1007.92
2018-04-14T01:32:01.573Z,1007.92
2018-04-14T01:33:01.563Z,1007.88
2018-04-14T01:34:01.594Z,1007.90
2018-04-14T01:35:01.523Z,1007.90
2018-04-14T01:36:01.511Z,1007.91
2018-04-14T01:37:01.493Z,1007.88
2018-04-14T01:38:01.479Z,1007.90
2018-04-14T01:39:01.464Z,1007.90
2018-04-14T01:40:01.450Z,1007.89
2018-04-14T01:41:01.434Z,1007.89
2018-04-14T01:42:01.415Z,1007.88
2018-04-14T01:43:01.416Z,1007.92
2018-04-14T01:44:01.395Z,1007.88
2018-04-14T01:45:01.370Z,1007.90
2018-04-14T01:46:01.362Z,1007.89
2018-04-14T01:47:01.341Z,1007.92
2018-04-14T01:48:01.324Z,1007.94
2018-04-14T01:49:01.314Z,1007.93
2018-04-14T01:50:01.293Z,1007.88
2018-04-14T01:51:01.273Z,1007.94
2018-04-14T01:52:01.268Z,1007.94
2018-04-14T01:53:01.244Z,1007.93
2018-04-14T01:54:01.230Z,1007.97
2018-04-14T01:55:01.213Z,1008.00
2018-04-14T01:56:01.202Z,1008.01
2018-04-14T01:57:01.181Z,1008.00
2018-04-14T01:58:01.170Z,1008.00
2018-04-14T01:59:01.152Z,1007.97
2018-04-14T02:00:01.140Z,1007.96
2018-04-14T02:01:01.124Z,1007.97
2018-04-14T02:02:01.111Z,1007.99
2018-04-14T02:03:01.088Z,1007.99
2018-04-14T02:04:01.075Z,1007.99
2018-04-14T02:05:01.058Z,1008.00
2018-04-14T02:06:01.043Z,1008.00
2018-04-14T02:07:01.025Z,1008.03
2018-04-14T02:08:01.013Z,1008.05
2018-04-14T02:09:00.998Z,1008.04
2018-04-14T02:10:00.982Z,1007.99
2018-04-14T02:11:00.964Z,1007.95
2018-04-14T02:12:00.947Z,1007.92
2018-04-14T02:13:00.938Z,1007.91
2018-04-14T02:14:00.925Z,1007.91
2018-04-14T02:15:00.902Z,1007.87
2018-04-14T02:16:00.892Z,1007.84
2018-04-14T02:17:00.872Z,1007.85
2018-04-14T02:18:00.870Z,1007.85
2018-04-14T02:19:00.842Z,1007.86
2018-04-14T02:20:00.825Z,1007.84
2018-04-14T02:21:00.809Z,1007.86
2018-04-14T02:22:00.792Z,1007.84
2018-04-14T02:23:00.775Z,1007.84
2018-04-14T02:24:00.762Z,1007.87
2018-04-14T02:25:00.745Z,1007.89
2018-04-14T02:26:00.729Z,1007.87
2018-04-14T02:27:00.713Z,1007.83
2018-04-14T02:28:00.704Z,1007.86
2018-04-14T02:29:00.686Z,1007.82
2018-04-14T02:30:00.679Z,1007.87
2018-04-14T02:31:00.651Z,1007.86
2018-04-14T02:32:00.641Z,1007.89
2018-04-14T02:33:00.619Z,1007.92
2018-04-14T02:34:00.612Z,1007.87
2018-04-14T02:35:00.589Z,1007.92
2018-04-14T02:36:00.574Z,1007.90
2018-04-14T02:37:00.573Z,1007.90
2018-04-14T02:38:00.542Z,1007.89
2018-04-14T02:39:00.525Z,1007.87
2018-04-14T02:40:00.515Z,1007.91
2018-04-14T02:41:00.498Z,1007.90
2018-04-14T02:42:00.481Z,1007.90
2018-04-14T02:43:00.461Z,1007.85
2018-04-14T02:44:00.453Z,1007.87
2018-04-14T02:45:00.432Z,1007.90
2018-04-14T02:46:00.426Z,1007.86
2018-04-14T02:47:00.400Z,1007.90
2018-04-14T02:48:00.395Z,1007.90
2018-04-14T02:49:00.370Z,1007.88
2018-04-14T02:50:00.356Z,1007.89
2018-04-14T02:51:00.339Z,1007.85
2018-04-14T02:52:00.332Z,1007.87
2018-04-14T02:53:00.311Z,1007.89
2018-04-14T02:54:00.292Z,1007.88
2018-04-14T02:55:00.276Z,1007.90
2018-04-14T02:56:00.263Z,1007.87
2018-04-14T02:57:00.301Z,1007.87
2018-04-14T02:58:00.236Z,1007.90
2018-04-14T02:59:00.217Z,1007.92
2018-04-14T03:00:00.196Z,1007.88
2018-04-14T03:01:00.186Z,1007.94
2018-04-14T03:02:00.164Z,1007.94
2018-04-14T03:03:00.151Z,1007.96
2018-04-14T03:04:00.133Z,1007.96
2018-04-14T03:05:00.122Z,1007.95
2018-04-14T03:06:00.105Z,1007.97
2018-04-14T03:07:00.090Z,1007.95
2018-04-14T03:08:00.075Z,1007.91
2018-04-14T03:09:00.206Z,1007.92
2018-04-14T03:10:00.044Z,1007.94
2018-04-14T03:11:00.172Z,1007.88
2018-04-14T03:12:00.021Z,1007.91
2018-04-14T03:13:00.094Z,1007.95
2018-04-14T03:13:59.983Z,1007.99
2018-04-14T03:14:59.962Z,1008.01
2018-04-14T03:15:59.944Z,1008.03
2018-04-14T03:16:59.967Z,1007.98
2018-04-14T03:17:59.915Z,1007.96
2018-04-14T03:19:00.055Z,1007.97
2018-04-14T03:19:59.881Z,1007.98
2018-04-14T03:20:59.872Z,1008.02
2018-04-14T03:21:59.852Z,1008.05
2018-04-14T03:22:59.835Z,1008.02
2018-04-14T03:23:59.819Z,1008.03
2018-04-14T03:24:59.850Z,1008.01
2018-04-14T03:25:59.790Z,1007.99
2018-04-14T03:26:59.829Z,1008.06
2018-04-14T03:27:59.758Z,1008.06
2018-04-14T03:28:59.844Z,1008.05
2018-04-14T03:29:59.724Z,1008.09
2018-04-14T03:30:59.759Z,1008.07
2018-04-14T03:31:59.694Z,1008.04
2018-04-14T03:32:59.728Z,1008.04
2018-04-14T03:33:59.664Z,1008.02
2018-04-14T03:34:59.696Z,1008.04
2018-04-14T03:35:59.630Z,1008.04
2018-04-14T03:36:59.667Z,1008.06
2018-04-14T03:37:59.599Z,1008.08
2018-04-14T03:38:59.583Z,1008.10
2018-04-14T03:39:59.564Z,1008.10
2018-04-14T03:40:59.552Z,1008.12
2018-04-14T03:41:59.537Z,1008.12
2018-04-14T03:42:59.521Z,1008.10
2018-04-14T03:43:59.502Z,1008.11
2018-04-14T03:44:59.488Z,1008.10
2018-04-14T03:45:59.472Z,1008.07
2018-04-14T03:46:59.455Z,1008.10
2018-04-14T03:47:59.445Z,1008.12
2018-04-14T03:48:59.431Z,1008.16
2018-04-14T03:49:59.412Z,1008.15
2018-04-14T03:50:59.394Z,1008.12
2018-04-14T03:51:59.378Z,1008.13
2018-04-14T03:52:59.363Z,1008.16
2018-04-14T03:53:59.347Z,1008.17
2018-04-14T03:54:59.329Z,1008.20
2018-04-14T03:55:59.317Z,1008.18
2018-04-14T03:56:59.300Z,1008.25
2018-04-14T03:57:59.285Z,1008.26
2018-04-14T03:58:59.270Z,1008.29
2018-04-14T03:59:59.253Z,1008.30
2018-04-14T04:00:59.241Z,1008.33
2018-04-14T04:01:59.222Z,1008.35
2018-04-14T04:02:59.207Z,1008.30
2018-04-14T04:03:59.192Z,1008.38
2018-04-14T04:04:59.177Z,1008.36
2018-04-14T04:05:59.160Z,1008.35
2018-04-14T04:06:59.145Z,1008.37
2018-04-14T04:07:59.130Z,1008.38
2018-04-14T04:08:59.114Z,1008.39
2018-04-14T04:09:59.096Z,1008.38
2018-04-14T04:10:59.081Z,1008.40
2018-04-14T04:11:59.068Z,1008.40
2018-04-14T04:12:59.050Z,1008.46
2018-04-14T04:13:59.044Z,1008.50
2018-04-14T04:14:59.022Z,1008.52
2018-04-14T04:15:59.003Z,1008.49
2018-04-14T04:16:58.987Z,1008.55
2018-04-14T04:17:58.973Z,1008.58
2018-04-14T04:18:58.954Z,1008.56
2018-04-14T04:19:58.943Z,1008.54
2018-04-14T04:20:58.925Z,1008.55
2018-04-14T04:21:58.909Z,1008.55
2018-04-14T04:22:58.900Z,1008.57
2018-04-14T04:23:58.879Z,1008.56
2018-04-14T04:24:58.859Z,1008.58
2018-04-14T04:25:58.854Z,1008.65
2018-04-14T04:26:58.833Z,1008.65
2018-04-14T04:27:58.821Z,1008.63
2018-04-14T04:28:58.798Z,1008.61
2018-04-14T04:29:58.780Z,1008.66
2018-04-14T04:30:58.767Z,1008.70
2018-04-14T04:31:58.752Z,1008.73
2018-04-14T04:32:58.734Z,1008.72
2018-04-14T04:33:58.725Z,1008.72
2018-04-14T04:34:58.703Z,1008.73
2018-04-14T04:35:58.687Z,1008.74
2018-04-14T04:36:58.673Z,1008.79
2018-04-14T04:37:58.662Z,1008.80
2018-04-14T04:38:58.636Z,1008.82
2018-04-14T04:39:58.644Z,1008.84
2018-04-14T04:40:58.621Z,1008.90
2018-04-14T04:41:58.593Z,1008.86
2018-04-14T04:42:58.573Z,1008.89
2018-04-14T04:43:58.563Z,1008.89
2018-04-14T04:44:58.556Z,1008.96
2018-04-14T04:45:58.534Z,1008.98
2018-04-14T04:46:58.524Z,1008.99
2018-04-14T04:47:58.503Z,1009.02
2018-04-14T04:48:58.503Z,1009.00
2018-04-14T04:49:58.460Z,1009.01
2018-04-14T04:50:58.445Z,1009.01
2018-04-14T04:51:58.429Z,1008.98
2018-04-14T04:52:58.412Z,1008.96
2018-04-14T04:53:58.399Z,1009.00
2018-04-14T04:54:58.383Z,1009.03
2018-04-14T04:55:58.369Z,1009.06
2018-04-14T04:56:58.354Z,1009.08
2018-04-14T04:57:58.334Z,1009.10
2018-04-14T04:58:58.322Z,1009.03
2018-04-14T04:59:58.299Z,1009.06
2018-04-14T05:00:58.284Z,1009.09
2018-04-14T05:01:58.271Z,1009.13
2018-04-14T05:02:58.250Z,1009.16
2018-04-14T05:03:58.243Z,1009.21
2018-04-14T05:04:58.224Z,1009.20
2018-04-14T05:05:58.204Z,1009.23
2018-04-14T05:06:58.192Z,1009.24
2018-04-14T05:07:58.173Z,1009.23
2018-04-14T05:08:58.153Z,1009.30
2018-04-14T05:09:58.144Z,1009.38
2018-04-14T05:10:58.126Z,1009.38
2018-04-14T05:11:58.117Z,1009.39
2018-04-14T05:12:58.089Z,1009.36
2018-04-14T05:13:58.075Z,1009.35
2018-04-14T05:14:58.078Z,1009.37
2018-04-14T05:15:58.039Z,1009.39
2018-04-14T05:16:58.027Z,1009.41
2018-04-14T05:17:58.021Z,1009.42
2018-04-14T05:18:57.992Z,1009.46
2018-04-14T05:19:58.030Z,1009.44
2018-04-14T05:20:57.964Z,1009.51
2018-04-14T05:21:58.049Z,1009.49
2018-04-14T05:22:57.932Z,1009.51
2018-04-14T05:23:57.914Z,1009.51
2018-04-14T05:24:57.895Z,1009.58
2018-04-14T05:25:57.882Z,1009.59
2018-04-14T05:26:57.867Z,1009.63
2018-04-14T05:27:57.852Z,1009.69
2018-04-14T05:28:57.833Z,1009.66
2018-04-14T05:29:57.817Z,1009.63
2018-04-14T05:30:57.803Z,1009.68
2018-04-14T05:31:57.803Z,1009.65
2018-04-14T05:32:57.772Z,1009.64
2018-04-14T05:33:57.752Z,1009.68
2018-04-14T05:34:57.733Z,1009.67
2018-04-14T05:35:57.714Z,1009.67
2018-04-14T05:36:57.698Z,1009.66
2018-04-14T05:37:57.685Z,1009.65
2018-04-14T05:38:57.666Z,1009.68
2018-04-14T05:39:57.655Z,1009.68
2018-04-14T05:40:57.636Z,1009.67
2018-04-14T05:41:57.622Z,1009.69
2018-04-14T05:42:57.599Z,1009.67
2018-04-14T05:43:57.584Z,1009.69
2018-04-14T05:44:57.568Z,1009.72
2018-04-14T05:45:57.552Z,1009.68
2018-04-14T05:46:57.532Z,1009.71
2018-04-14T05:47:57.532Z,1009.74
2018-04-14T05:48:57.502Z,1009.71
2018-04-14T05:49:57.486Z,1009.76
2018-04-14T05:50:57.524Z,1009.74
2018-04-14T05:51:57.457Z,1009.71
2018-04-14T05:52:57.442Z,1009.74
2018-04-14T05:53:57.424Z,1009.77
2018-04-14T05:54:57.406Z,1009.82
2018-04-14T05:55:57.394Z,1009.84
2018-04-14T05:56:57.375Z,1009.83
2018-04-14T05:57:57.364Z,1009.84
2018-04-14T05:58:57.345Z,1009.84
2018-04-14T05:59:57.324Z,1009.84
2018-04-14T06:00:57.315Z,1009.88
2018-04-14T06:01:57.294Z,1009.89
2018-04-14T06:02:57.275Z,1009.92
2018-04-14T06:03:57.265Z,1009.92
2018-04-14T06:04:57.244Z,1009.87
2018-04-14T06:05:57.231Z,1009.84
2018-04-14T06:06:57.217Z,1009.90
2018-04-14T06:07:57.195Z,1009.92
2018-04-14T06:08:57.183Z,1009.93
2018-04-14T06:09:57.165Z,1009.93
2018-04-14T06:10:57.144Z,1009.90
2018-04-14T06:11:57.185Z,1009.86
2018-04-14T06:12:57.111Z,1009.86
2018-04-14T06:13:57.147Z,1009.88
2018-04-14T06:14:57.109Z,1009.88
2018-04-14T06:15:57.115Z,1009.91
2018-04-14T06:16:57.054Z,1009.90
2018-04-14T06:17:57.078Z,1009.99
2018-04-14T06:18:57.015Z,1010.01
2018-04-14T06:19:57.004Z,1010.04
2018-04-14T06:20:56.984Z,1010.00
2018-04-14T06:21:56.971Z,1009.99
2018-04-14T06:22:56.953Z,1010.04
2018-04-14T06:23:56.943Z,1010.09
2018-04-14T06:24:56.928Z,1010.08
2018-04-14T06:25:56.910Z,1010.13
2018-04-14T06:26:56.894Z,1010.15
2018-04-14T06:27:56.879Z,1010.15
2018-04-14T06:28:56.862Z,1010.16
2018-04-14T06:29:56.843Z,1010.15
2018-04-14T06:30:56.834Z,1010.18
2018-04-14T06:31:56.815Z,1010.17
2018-04-14T06:32:56.793Z,1010.21
2018-04-14T06:33:56.775Z,1010.20
2018-04-14T06:34:56.766Z,1010.24
2018-04-14T06:35:56.744Z,1010.27
2018-04-14T06:36:56.729Z,1010.22
2018-04-14T06:37:56.713Z,1010.25
2018-04-14T06:38:56.701Z,1010.24
2018-04-14T06:39:56.682Z,1010.26
2018-04-14T06:40:56.674Z,1010.24
2018-04-14T06:41:56.658Z,1010.24
2018-04-14T06:42:56.633Z,1010.24
2018-04-14T06:43:56.623Z,1010.30
2018-04-14T06:44:56.605Z,1010.34
2018-04-14T06:45:56.598Z,1010.33
2018-04-14T06:46:56.574Z,1010.36
2018-04-14T06:47:56.564Z,1010.36
2018-04-14T06:48:56.545Z,1010.34
2018-04-14T06:49:56.535Z,1010.39
2018-04-14T06:50:56.514Z,1010.41
2018-04-14T06:51:56.501Z,1010.46
2018-04-14T06:52:56.484Z,1010.46
2018-04-14T06:53:56.479Z,1010.49
2018-04-14T06:54:56.456Z,1010.47
2018-04-14T06:55:56.477Z,1010.45
2018-04-14T06:56:56.426Z,1010.56
2018-04-14T06:57:56.410Z,1010.48
2018-04-14T06:58:56.403Z,1010.59
2018-04-14T06:59:56.383Z,1010.65
2018-04-14T07:00:56.372Z,1010.69
2018-04-14T07:01:56.363Z,1010.64
2018-04-14T07:02:56.353Z,1010.55
2018-04-14T07:03:56.333Z,1010.53
2018-04-14T07:04:56.348Z,1010.57
2018-04-14T07:05:56.306Z,1010.56
2018-04-14T07:06:56.294Z,1010.61
2018-04-14T07:07:56.280Z,1010.58
2018-04-14T07:08:56.265Z,1010.66
2018-04-14T07:09:56.255Z,1010.64
2018-04-14T07:10:56.243Z,1010.68
2018-04-14T07:11:56.224Z,1010.63
2018-04-14T07:12:56.212Z,1010.67
2018-04-14T07:13:56.194Z,1010.61
2018-04-14T07:14:56.184Z,1010.67
2018-04-14T07:15:56.166Z,1010.69
2018-04-14T07:16:56.155Z,1010.65
2018-04-14T07:17:56.143Z,1010.78
2018-04-14T07:18:56.124Z,1010.76
2018-04-14T07:19:56.111Z,1010.90
2018-04-14T07:20:56.115Z,1010.99
2018-04-14T07:21:56.085Z,1011.03
2018-04-14T07:22:56.073Z,1010.96
2018-04-14T07:23:56.066Z,1010.99
2018-04-14T07:24:56.047Z,1010.99
2018-04-14T07:25:56.033Z,1011.09
2018-04-14T07:26:56.022Z,1011.08
2018-04-14T07:27:56.016Z,1011.10
2018-04-14T07:28:55.993Z,1011.19
2018-04-14T07:29:55.984Z,1011.17
2018-04-14T07:30:55.974Z,1011.21
2018-04-14T07:31:55.968Z,1011.11
2018-04-14T07:32:55.955Z,1011.14
2018-04-14T07:33:55.944Z,1011.03
2018-04-14T07:34:55.934Z,1011.12
2018-04-14T07:35:55.922Z,1011.10
2018-04-14T07:36:55.906Z,1011.00
2018-04-14T07:37:55.901Z,1010.99
2018-04-14T07:38:55.886Z,1011.01
2018-04-14T07:39:55.872Z,1010.99
2018-04-14T07:40:55.863Z,1011.02
2018-04-14T07:41:55.852Z,1011.05
2018-04-14T07:42:55.845Z,1010.99
2018-04-14T07:43:55.832Z,1011.00
2018-04-14T07:44:55.827Z,1010.98
2018-04-14T07:45:55.803Z,1010.99
2018-04-14T07:46:55.793Z,1011.04
2018-04-14T07:47:55.792Z,1010.96
2018-04-14T07:48:55.779Z,1011.03
2018-04-14T07:49:55.754Z,1011.02
2018-04-14T07:50:55.743Z,1011.01
2018-04-14T07:51:55.730Z,1011.01
2018-04-14T07:52:55.731Z,1011.00
2018-04-14T07:53:55.713Z,1011.04
2018-04-14T07:54:55.690Z,1011.04
2018-04-14T07:55:55.683Z,1011.08
2018-04-14T07:56:55.669Z,1011.11
2018-04-14T07:57:55.653Z,1011.07
2018-04-14T07:58:55.647Z,1011.10
2018-04-14T07:59:55.636Z,1011.12
2018-04-14T08:00:55.615Z,1011.10
2018-04-14T08:01:55.606Z,1011.13
2018-04-14T08:02:55.591Z,1011.20
2018-04-14T08:03:55.581Z,1011.16
2018-04-14T08:04:55.561Z,1011.17
2018-04-14T08:05:55.552Z,1011.18
2018-04-14T08:06:55.548Z,1011.23
2018-04-14T08:07:55.526Z,1011.33
2018-04-14T08:08:55.510Z,1011.35
2018-04-14T08:09:55.499Z,1011.34
2018-04-14T08:10:55.489Z,1011.48
2018-04-14T08:11:55.475Z,1011.40
2018-04-14T08:12:55.463Z,1011.76
2018-04-14T08:13:55.452Z,1011.45
2018-04-14T08:14:55.439Z,1011.47
2018-04-14T08:15:55.426Z,1011.72
2018-04-14T08:16:55.414Z,1011.43
2018-04-14T08:17:55.409Z,1011.76
2018-04-14T08:18:55.386Z,1011.49
2018-04-14T08:19:55.377Z,1011.40
2018-04-14T08:20:55.364Z,1011.42
2018-04-14T08:21:55.361Z,1011.38
2018-04-14T08:22:55.343Z,1011.42
2018-04-14T08:23:55.338Z,1011.46
2018-04-14T08:24:55.328Z,1011.48
2018-04-14T08:25:55.319Z,1011.60
2018-04-14T08:26:55.292Z,1011.59
2018-04-14T08:27:55.282Z,1011.54
2018-04-14T08:28:55.273Z,1012.05
2018-04-14T08:29:55.261Z,1011.92
2018-04-14T08:30:55.259Z,1011.78
2018-04-14T08:31:55.235Z,1011.57
2018-04-14T08:32:55.244Z,1011.54
2018-04-14T08:33:55.216Z,1011.74
2018-04-14T08:34:55.203Z,1011.51
2018-04-14T08:35:55.193Z,1011.76
2018-04-14T08:36:55.184Z,1011.61
2018-04-14T08:37:55.173Z,1011.60
2018-04-14T08:38:55.166Z,1011.50
2018-04-14T08:39:55.146Z,1011.56
2018-04-14T08:40:55.147Z,1011.53
2018-04-14T08:41:55.134Z,1011.58
2018-04-14T08:42:55.112Z,1011.69
2018-04-14T08:43:55.111Z,1011.61
2018-04-14T08:44:55.091Z,1011.62
2018-04-14T08:45:55.081Z,1011.64
2018-04-14T08:46:55.073Z,1011.58
2018-04-14T08:47:55.157Z,1011.61
2018-04-14T08:48:55.044Z,1011.63
2018-04-14T08:49:55.031Z,1011.64
2018-04-14T08:50:55.024Z,1011.54
2018-04-14T08:51:55.009Z,1011.57
2018-04-14T08:52:55.003Z,1011.58
2018-04-14T08:53:55.041Z,1011.58
2018-04-14T08:54:54.970Z,1011.51
2018-04-14T08:55:54.960Z,1011.87
2018-04-14T08:56:54.946Z,1011.59
2018-04-14T08:57:54.938Z,1011.60
2018-04-14T08:58:54.924Z,1011.67
2018-04-14T08:59:54.922Z,1011.64
2018-04-14T09:00:54.898Z,1011.55
2018-04-14T09:01:54.886Z,1011.60
2018-04-14T09:02:54.873Z,1011.63
2018-04-14T09:03:54.867Z,1011.61
2018-04-14T09:04:54.852Z,1011.64
2018-04-14T09:05:54.843Z,1011.60
2018-04-14T09:06:54.821Z,1011.65
2018-04-14T09:07:54.808Z,1011.68
2018-04-14T09:08:54.796Z,1011.68
2018-04-14T09:09:54.789Z,1011.66
2018-04-14T09:10:54.774Z,1011.65
2018-04-14T09:11:54.757Z,1011.66
2018-04-14T09:12:54.751Z,1011.63
2018-04-14T09:13:54.735Z,1011.66
2018-04-14T09:14:54.720Z,1011.73
2018-04-14T09:15:54.710Z,1011.67
2018-04-14T09:16:54.691Z,1011.74
2018-04-14T09:17:54.679Z,1011.71
2018-04-14T09:18:54.664Z,1011.74
2018-04-14T09:19:54.651Z,1011.71
2018-04-14T09:20:54.657Z,1011.68
2018-04-14T09:21:54.626Z,1011.71
2018-04-14T09:22:54.615Z,1011.76
2018-04-14T09:23:54.599Z,1011.70
2018-04-14T09:24:54.589Z,1011.72
2018-04-14T09:25:54.582Z,1011.71
2018-04-14T09:26:54.566Z,1011.72
2018-04-14T09:27:54.550Z,1011.72
2018-04-14T09:28:54.534Z,1011.69
2018-04-14T09:29:54.535Z,1011.72
2018-04-14T09:30:54.554Z,1011.75
2018-04-14T09:31:54.495Z,1011.75
2018-04-14T09:32:54.479Z,1011.76
2018-04-14T09:33:54.470Z,1011.77
2018-04-14T09:34:54.453Z,1011.79
2018-04-14T09:35:54.439Z,1011.74
2018-04-14T09:36:54.437Z,1011.72
2018-04-14T09:37:54.412Z,1011.73
2018-04-14T09:38:54.403Z,1011.78
2018-04-14T09:39:54.390Z,1011.75
2018-04-14T09:40:54.375Z,1011.84
2018-04-14T09:41:54.372Z,1011.87
2018-04-14T09:42:54.364Z,1011.86
2018-04-14T09:43:54.337Z,1011.84
2018-04-14T09:44:54.320Z,1011.82
2018-04-14T09:45:54.328Z,1011.81
2018-04-14T09:46:54.297Z,1011.87
2018-04-14T09:47:54.287Z,1011.79
2018-04-14T09:48:54.270Z,1011.79
2018-04-14T09:49:54.258Z,1011.88
2018-04-14T09:50:54.249Z,1011.80
2018-04-14T09:51:54.231Z,1011.77
2018-04-14T09:52:54.232Z,1011.82
2018-04-14T09:53:54.209Z,1011.80
2018-04-14T09:54:54.324Z,1011.86
2018-04-14T09:55:54.237Z,1011.86
2018-04-14T09:56:54.288Z,1011.83
2018-04-14T09:57:54.158Z,1011.86
2018-04-14T09:58:54.143Z,1011.82
2018-04-14T09:59:54.128Z,1011.85
2018-04-14T10:00:54.130Z,1011.89
2018-04-14T10:01:54.114Z,1011.88
2018-04-14T10:02:54.121Z,1011.80
2018-04-14T10:03:54.088Z,1011.87
2018-04-14T10:04:54.154Z,1011.87
2018-04-14T10:05:54.057Z,1011.93
2018-04-14T10:06:54.072Z,1011.94
2018-04-14T10:07:54.027Z,1011.92
2018-04-14T10:08:54.025Z,1011.93
2018-04-14T10:09:54.006Z,1011.90
2018-04-14T10:10:54.144Z,1011.88
2018-04-14T10:11:53.975Z,1011.89
2018-04-14T10:12:53.972Z,1011.91
2018-04-14T10:13:53.953Z,1011.97
2018-04-14T10:14:53.944Z,1011.89
2018-04-14T10:15:53.936Z,1011.86
2018-04-14T10:16:53.922Z,1011.85
2018-04-14T10:17:53.901Z,1011.86
2018-04-14T10:18:53.891Z,1011.84
2018-04-14T10:19:53.882Z,1011.86
2018-04-14T10:20:53.863Z,1011.86
2018-04-14T10:21:53.851Z,1011.88
2018-04-14T10:22:53.840Z,1011.83
2018-04-14T10:23:53.824Z,1011.86
2018-04-14T10:24:53.811Z,1011.92
2018-04-14T10:25:53.804Z,1011.89
2018-04-14T10:26:53.787Z,1011.88
2018-04-14T10:27:53.772Z,1011.89
2018-04-14T10:28:53.770Z,1011.85
2018-04-14T10:29:53.746Z,1011.89
2018-04-14T10:30:53.732Z,1011.86
2018-04-14T10:31:53.726Z,1011.85
2018-04-14T10:32:53.709Z,1011.83
2018-04-14T10:33:53.696Z,1011.85
2018-04-14T10:34:53.682Z,1011.87
2018-04-14T10:35:53.680Z,1011.81
2018-04-14T10:36:53.656Z,1011.85
2018-04-14T10:37:53.762Z,1011.90
2018-04-14T10:38:53.641Z,1011.90
2018-04-14T10:39:53.628Z,1011.92
2018-04-14T10:40:53.606Z,1011.99
2018-04-14T10:41:53.596Z,1011.97
2018-04-14T10:42:53.581Z,1011.93
2018-04-14T10:43:53.606Z,1011.90
2018-04-14T10:44:53.558Z,1011.87
2018-04-14T10:45:53.542Z,1011.87
2018-04-14T10:46:53.532Z,1011.88
2018-04-14T10:47:53.522Z,1011.88
2018-04-14T10:48:53.513Z,1011.87
2018-04-14T10:49:53.492Z,1011.95
2018-04-14T10:50:53.482Z,1011.96
2018-04-14T10:51:53.466Z,1011.91
2018-04-14T10:52:53.459Z,1011.93
2018-04-14T10:53:53.443Z,1012.00
2018-04-14T10:54:53.432Z,1011.99
2018-04-14T10:55:53.423Z,1011.97
2018-04-14T10:56:53.417Z,1011.96
2018-04-14T10:57:53.394Z,1011.94
2018-04-14T10:58:53.379Z,1011.94
2018-04-14T10:59:53.368Z,1011.94
2018-04-14T11:00:53.372Z,1011.96
2018-04-14T11:01:53.356Z,1011.92
2018-04-14T11:02:53.333Z,1011.93
2018-04-14T11:03:53.332Z,1011.96
2018-04-14T11:04:53.314Z,1011.96
2018-04-14T11:05:53.293Z,1011.96
2018-04-14T11:06:53.284Z,1011.93
2018-04-14T11:07:53.272Z,1011.97
2018-04-14T11:08:53.267Z,1012.07
2018-04-14T11:09:53.247Z,1011.98
2018-04-14T11:10:53.234Z,1012.01
2018-04-14T11:11:53.223Z,1011.97
2018-04-14T11:12:53.229Z,1012.02
2018-04-14T11:13:53.207Z,1012.01
2018-04-14T11:14:53.185Z,1012.03
2018-04-14T11:15:53.178Z,1012.03
2018-04-14T11:16:53.165Z,1011.99
2018-04-14T11:17:53.155Z,1011.98
2018-04-14T11:18:53.146Z,1012.00
2018-04-14T11:19:53.128Z,1012.07
2018-04-14T11:20:53.125Z,1012.01
2018-04-14T11:21:53.109Z,1012.04
2018-04-14T11:22:53.109Z,1012.06
2018-04-14T11:23:53.082Z,1012.06
2018-04-14T11:24:53.068Z,1011.99
2018-04-14T11:25:53.115Z,1011.99
2018-04-14T11:26:53.045Z,1011.97
2018-04-14T11:27:53.031Z,1011.97
2018-04-14T11:28:53.025Z,1012.03
2018-04-14T11:29:53.015Z,1012.04
2018-04-14T11:30:53.003Z,1012.08
2018-04-14T11:31:52.988Z,1012.11
2018-04-14T11:32:52.985Z,1012.05
2018-04-14T11:33:52.963Z,1011.97
2018-04-14T11:34:52.955Z,1012.00
2018-04-14T11:35:52.945Z,1011.96
2018-04-14T11:36:52.935Z,1012.00
2018-04-14T11:37:52.926Z,1012.08
2018-04-14T11:38:52.913Z,1012.02
2018-04-14T11:39:52.894Z,1012.06
2018-04-14T11:40:52.887Z,1012.09
2018-04-14T11:41:52.882Z,1012.07
2018-04-14T11:42:52.865Z,1012.14
2018-04-14T11:43:52.861Z,1012.11
2018-04-14T11:44:52.845Z,1012.19
2018-04-14T11:45:52.835Z,1012.14
2018-04-14T11:46:52.824Z,1012.25
2018-04-14T11:47:52.800Z,1012.27
2018-04-14T11:48:52.794Z,1012.14
2018-04-14T11:49:52.777Z,1012.09
2018-04-14T11:50:52.776Z,1012.07
2018-04-14T11:51:52.758Z,1012.11
2018-04-14T11:52:52.743Z,1012.12
2018-04-14T11:53:52.743Z,1012.20
2018-04-14T11:54:52.724Z,1012.14
2018-04-14T11:55:52.714Z,1012.20
2018-04-14T11:56:52.706Z,1012.22
2018-04-14T11:57:52.691Z,1012.09
2018-04-14T11:58:52.676Z,1012.21
2018-04-14T11:59:52.667Z,1012.15
2018-04-14T12:00:52.655Z,1012.15
2018-04-14T12:01:52.645Z,1012.21
2018-04-14T12:02:52.644Z,1012.22
2018-04-14T12:03:52.625Z,1012.23
2018-04-14T12:04:52.618Z,1012.25